Nyk Constellation — V7NP4 — position and weather

sailwx.info

Track history (hours):
 
Tides and Currents Weather Stations Pressure Air Temp Water Temp Dewpoint Dewpoint Depression Visibility Wind Speed Wind Dir Waves Ship Positions

Nyk Constellation

Last reported at 2014-Dec-19 06:29 UTC. Time now 2014-Dec-22 22:42 UTC.
Position N 44°23' W 063°07'.

Length 294 m; draft 10.4 m.

Type: Cargo ship. MMSI: 538002992.

Date/timePositionNaut miles runAvg speedWind from/ knotsBaromVisibWave heightAir tempDewpointWater temp
2014-Dec-19 06:29N 44°23' W 063°07'1617.0
2014-Dec-19 05:32N 44°27' W 063°29'1010.6
2014-Dec-19 04:33N 44°37' W 063°33'5 4.9
2014-Dec-19 03:33N 44°40' W 063°38'0 0.2
2014-Dec-19 02:31N 44°40' W 063°38'0 0.0
2014-Dec-19 01:22N 44°40' W 063°38'0 0.0
2014-Dec-19 00:22N 44°40' W 063°38'0 0.0
2014-Dec-18 23:25N 44°40' W 063°38'0 0.0
2014-Dec-18 22:25N 44°40' W 063°38'0 0.0
2014-Dec-18 21:25N 44°40' W 063°38'0 0.0
2014-Dec-18 20:28N 44°40' W 063°38'0 0.0
2014-Dec-18 19:28N 44°40' W 063°38'0 0.0
2014-Dec-18 18:31N 44°40' W 063°38'1 0.9
2014-Dec-18 17:33N 44°41' W 063°37'5 5.4
2014-Dec-18 16:33N 44°36' W 063°33'9 8.9
2014-Dec-18 15:33N 44°28' W 063°27'1211.0
2014-Dec-18 14:30N 44°17' W 063°29'35619.5
2014-Dec-17 20:12N 40°26' W 069°36'1621.0
2014-Dec-17 19:26N 40°26' W 069°57'2121.1
2014-Dec-17 18:27N 40°25' W 070°24'2121.1
2014-Dec-17 17:28N 40°25' W 070°52'2021.1
2014-Dec-17 16:32N 40°24' W 071°18'2121.2
2014-Dec-17 15:33N 40°24' W 071°45'2121.1
2014-Dec-17 14:33N 40°23' W 072°13'2121.0
2014-Dec-17 13:33N 40°22' W 072°40'2019.4
2014-Dec-17 12:31N 40°22' W 073°06'1111.6
2014-Dec-17 11:33N 40°22' W 073°21'10 9.6
2014-Dec-17 10:33N 40°24' W 073°33'10 9.6
2014-Dec-17 09:32N 40°26' W 073°46'9 9.6
2014-Dec-17 08:33N 40°30' W 073°57'10 9.6
2014-Dec-17 07:33N 40°38' W 074°04'5 5.2
2014-Dec-17 06:33N 40°39' W 074°10'1 0.9
2014-Dec-17 05:31N 40°38' W 074°11'0 0.0
2014-Dec-17 04:31N 40°38' W 074°11'0 0.0
2014-Dec-17 03:31N 40°38' W 074°11'0 0.0
2014-Dec-17 02:31N 40°38' W 074°11'0 0.0
2014-Dec-17 01:31N 40°38' W 074°11'0 0.0
2014-Dec-17 00:31N 40°38' W 074°11'0 0.0
2014-Dec-16 23:31N 40°38' W 074°11'0 0.0
2014-Dec-16 22:31N 40°38' W 074°11'0 0.0
2014-Dec-16 21:31N 40°38' W 074°11'0 0.0
2014-Dec-16 20:28N 40°38' W 074°11'0 0.0
2014-Dec-16 19:31N 40°38' W 074°11'0 0.0
2014-Dec-16 18:31N 40°38' W 074°11'0 0.0
2014-Dec-16 17:31N 40°38' W 074°11'0 0.0
2014-Dec-16 16:31N 40°38' W 074°11'0 0.0
2014-Dec-16 15:31N 40°38' W 074°11'0 0.0
2014-Dec-16 14:31N 40°38' W 074°11'0 0.0
2014-Dec-16 13:31N 40°38' W 074°11'0 0.0
2014-Dec-16 12:31N 40°38' W 074°11'0 0.0
2014-Dec-16 11:31N 40°38' W 074°11'2 1.7
2014-Dec-16 10:34N 40°39' W 074°09'5 5.1
2014-Dec-16 09:34N 40°37' W 074°03'1110.9
2014-Dec-16 08:34N 40°29' W 073°54'7 7.4
2014-Dec-16 07:34N 40°24' W 073°47'8 7.9
2014-Dec-16 06:34N 40°16' W 073°46'10 9.7
2014-Dec-16 05:34N 40°06' W 073°44'1110.6
2014-Dec-16 04:33N 39°56' W 073°42'1211.5
2014-Dec-16 03:30N 39°44' W 073°41'1111.7
2014-Dec-16 02:33N 39°33' W 073°44'1212.2
2014-Dec-16 01:32N 39°21' W 073°48'310 7.0
2014-Dec-14 05:15N 34°28' W 075°55'1317.9
2014-Dec-14 04:31N 34°19' W 076°07'28012.1
2014-Dec-13 05:27N 32°06' W 081°01'5 5.4
2014-Dec-13 04:33N 32°06' W 081°06'2 2.0
2014-Dec-13 03:32N 32°07' W 081°08'0 0.0
2014-Dec-13 02:29N 32°07' W 081°08'0 0.0
2014-Dec-13 01:32N 32°07' W 081°08'0 0.0
2014-Dec-13 00:32N 32°07' W 081°08'0 0.0
2014-Dec-12 23:32N 32°07' W 081°08'0 0.0
2014-Dec-12 22:32N 32°07' W 081°08'0 0.0
2014-Dec-12 21:32N 32°07' W 081°08'0 0.0
2014-Dec-12 20:32N 32°07' W 081°08'0 0.0
2014-Dec-12 19:32N 32°07' W 081°08'0 0.0
2014-Dec-12 18:20N 32°07' W 081°08'0 0.0
2014-Dec-12 17:32N 32°07' W 081°08'0 0.0
2014-Dec-12 16:32N 32°07' W 081°08'0 0.0
2014-Dec-12 15:32N 32°07' W 081°08'0 0.0
2014-Dec-12 14:32N 32°07' W 081°08'0 0.0
2014-Dec-12 13:32N 32°07' W 081°08'1 0.5
2014-Dec-12 12:31N 32°07' W 081°08'4 3.9
2014-Dec-12 11:33N 32°05' W 081°04'  
Track history (hours):
 
Tides and Currents Weather Stations Pressure Air Temp Water Temp Dewpoint Dewpoint Depression Visibility Wind Speed Wind Dir Waves Ship Positions

Nyk Constellation

Last reported at 2014-Dec-19 06:29 UTC. Time now 2014-Dec-22 22:42 UTC.
Position N 44°23' W 063°07'.

Length 294 m; draft 10.4 m.

Type: Cargo ship. MMSI: 538002992.

Date/timePositionNaut miles runAvg speedWind from/ knotsBaromVisibWave heightAir tempDewpointWater temp
2014-Dec-19 06:29N 44°23' W 063°07'1617.0
2014-Dec-19 05:32N 44°27' W 063°29'1010.6
2014-Dec-19 04:33N 44°37' W 063°33'5 4.9
2014-Dec-19 03:33N 44°40' W 063°38'0 0.2
2014-Dec-19 02:31N 44°40' W 063°38'0 0.0
2014-Dec-19 01:22N 44°40' W 063°38'0 0.0
2014-Dec-19 00:22N 44°40' W 063°38'0 0.0
2014-Dec-18 23:25N 44°40' W 063°38'0 0.0
2014-Dec-18 22:25N 44°40' W 063°38'0 0.0
2014-Dec-18 21:25N 44°40' W 063°38'0 0.0
2014-Dec-18 20:28N 44°40' W 063°38'0 0.0
2014-Dec-18 19:28N 44°40' W 063°38'0 0.0
2014-Dec-18 18:31N 44°40' W 063°38'1 0.9
2014-Dec-18 17:33N 44°41' W 063°37'5 5.4
2014-Dec-18 16:33N 44°36' W 063°33'9 8.9
2014-Dec-18 15:33N 44°28' W 063°27'1211.0
2014-Dec-18 14:30N 44°17' W 063°29'35619.5
2014-Dec-17 20:12N 40°26' W 069°36'1621.0
2014-Dec-17 19:26N 40°26' W 069°57'2121.1
2014-Dec-17 18:27N 40°25' W 070°24'2121.1
2014-Dec-17 17:28N 40°25' W 070°52'2021.1
2014-Dec-17 16:32N 40°24' W 071°18'2121.2
2014-Dec-17 15:33N 40°24' W 071°45'2121.1
2014-Dec-17 14:33N 40°23' W 072°13'2121.0
2014-Dec-17 13:33N 40°22' W 072°40'2019.4
2014-Dec-17 12:31N 40°22' W 073°06'1111.6
2014-Dec-17 11:33N 40°22' W 073°21'10 9.6
2014-Dec-17 10:33N 40°24' W 073°33'10 9.6
2014-Dec-17 09:32N 40°26' W 073°46'9 9.6
2014-Dec-17 08:33N 40°30' W 073°57'10 9.6
2014-Dec-17 07:33N 40°38' W 074°04'5 5.2
2014-Dec-17 06:33N 40°39' W 074°10'1 0.9
2014-Dec-17 05:31N 40°38' W 074°11'0 0.0
2014-Dec-17 04:31N 40°38' W 074°11'0 0.0
2014-Dec-17 03:31N 40°38' W 074°11'0 0.0
2014-Dec-17 02:31N 40°38' W 074°11'0 0.0
2014-Dec-17 01:31N 40°38' W 074°11'0 0.0
2014-Dec-17 00:31N 40°38' W 074°11'0 0.0
2014-Dec-16 23:31N 40°38' W 074°11'0 0.0
2014-Dec-16 22:31N 40°38' W 074°11'0 0.0
2014-Dec-16 21:31N 40°38' W 074°11'0 0.0
2014-Dec-16 20:28N 40°38' W 074°11'0 0.0
2014-Dec-16 19:31N 40°38' W 074°11'0 0.0
2014-Dec-16 18:31N 40°38' W 074°11'0 0.0
2014-Dec-16 17:31N 40°38' W 074°11'0 0.0
2014-Dec-16 16:31N 40°38' W 074°11'0 0.0
2014-Dec-16 15:31N 40°38' W 074°11'0 0.0
2014-Dec-16 14:31N 40°38' W 074°11'0 0.0
2014-Dec-16 13:31N 40°38' W 074°11'0 0.0
2014-Dec-16 12:31N 40°38' W 074°11'0 0.0
2014-Dec-16 11:31N 40°38' W 074°11'2 1.7
2014-Dec-16 10:34N 40°39' W 074°09'5 5.1
2014-Dec-16 09:34N 40°37' W 074°03'1110.9
2014-Dec-16 08:34N 40°29' W 073°54'7 7.4
2014-Dec-16 07:34N 40°24' W 073°47'8 7.9
2014-Dec-16 06:34N 40°16' W 073°46'10 9.7
2014-Dec-16 05:34N 40°06' W 073°44'1110.6
2014-Dec-16 04:33N 39°56' W 073°42'1211.5
2014-Dec-16 03:30N 39°44' W 073°41'1111.7
2014-Dec-16 02:33N 39°33' W 073°44'1212.2
2014-Dec-16 01:32N 39°21' W 073°48'310 7.0
2014-Dec-14 05:15N 34°28' W 075°55'1317.9
2014-Dec-14 04:31N 34°19' W 076°07'28012.1
2014-Dec-13 05:27N 32°06' W 081°01'5 5.4
2014-Dec-13 04:33N 32°06' W 081°06'2 2.0
2014-Dec-13 03:32N 32°07' W 081°08'0 0.0
2014-Dec-13 02:29N 32°07' W 081°08'0 0.0
2014-Dec-13 01:32N 32°07' W 081°08'0 0.0
2014-Dec-13 00:32N 32°07' W 081°08'0 0.0
2014-Dec-12 23:32N 32°07' W 081°08'0 0.0
2014-Dec-12 22:32N 32°07' W 081°08'0 0.0
2014-Dec-12 21:32N 32°07' W 081°08'0 0.0
2014-Dec-12 20:32N 32°07' W 081°08'0 0.0
2014-Dec-12 19:32N 32°07' W 081°08'0 0.0
2014-Dec-12 18:20N 32°07' W 081°08'0 0.0
2014-Dec-12 17:32N 32°07' W 081°08'0 0.0
2014-Dec-12 16:32N 32°07' W 081°08'0 0.0
2014-Dec-12 15:32N 32°07' W 081°08'0 0.0
2014-Dec-12 14:32N 32°07' W 081°08'0 0.0
2014-Dec-12 13:32N 32°07' W 081°08'1 0.5
2014-Dec-12 12:31N 32°07' W 081°08'4 3.9
2014-Dec-12 11:33N 32°05' W 081°04'  

Dump ship's entire track history